Herzlich willkommen!

Am freundlichen Bodensee-Flugplatz zwischen Schwarzwald, Rhein und Alpen.

Aktuelles

Es liegen keine aktuellen Meldungen vor. Wir freuen uns auf Ihren Besuch!

Live am Platz

Die Bilder unserer Webcams werden alle 5 Minuten aktualisiert.

Sonnenaufgang:

05:20 UTC / 06:20 Lokal

Sonnenuntergang:

17:40 UTC / 18:40 Lokal

METAR (22.03.2019 14:50 UTC):

EDNY 221450Z 24006KT CAVOK 14/02 Q1028
VFR

TAF (22.03.2019 11:00 UTC):

TAF EDNY 221100Z 2212/2312 VRB02KT CAVOK TEMPO 2212/2216 23005KT

Alle Angaben unverbindlich und ohne Gewähr. Zeiten genähert.

Für den Verkehrslandeplatz Konstanz werden keine offiziellen Wetterinformationen ausgegeben. Daher werden zur Orientierung Daten des nahegelegenen Flughafens Friedrichshafen dargestellt.

Flugwetterdaten zur Verfügung gestellt von wippich.aero.